sensor_id;sensor_type;location;lat;lon;timestamp;P1;P2;P0
67892;PMS7003;54688;52.376;16.744;2023-06-10T00:00:30;21;20;
67892;PMS7003;54688;52.376;16.744;2023-06-10T00:04:25;21;18;
67892;PMS7003;54688;52.376;16.744;2023-06-10T00:07:26;19;18;
67892;PMS7003;54688;52.376;16.744;2023-06-10T00:10:28;24;22;
67892;PMS7003;54688;52.376;16.744;2023-06-10T00:13:31;18;18;
67892;PMS7003;54688;52.376;16.744;2023-06-10T00:16:33;22;20;
67892;PMS7003;54688;52.376;16.744;2023-06-10T00:19:35;23;22;
67892;PMS7003;54688;52.376;16.744;2023-06-10T00:22:37;19;17;
67892;PMS7003;54688;52.376;16.744;2023-06-10T00:25:40;18;17;
67892;PMS7003;54688;52.376;16.744;2023-06-10T00:28:43;26;22;
67892;PMS7003;54688;52.376;16.744;2023-06-10T00:31:45;25;24;
67892;PMS7003;54688;52.376;16.744;2023-06-10T00:34:47;24;22;
67892;PMS7003;54688;52.376;16.744;2023-06-10T00:37:49;29;21;
67892;PMS7003;54688;52.376;16.744;2023-06-10T00:40:51;19;18;
67892;PMS7003;54688;52.376;16.744;2023-06-10T00:43:53;28;24;
67892;PMS7003;54688;52.376;16.744;2023-06-10T00:46:55;23;20;
67892;PMS7003;54688;52.376;16.744;2023-06-10T00:49:57;24;22;
67892;PMS7003;54688;52.376;16.744;2023-06-10T00:53:00;18;16;
67892;PMS7003;54688;52.376;16.744;2023-06-10T00:56:03;20;20;
67892;PMS7003;54688;52.376;16.744;2023-06-10T00:59:05;22;21;
67892;PMS7003;54688;52.376;16.744;2023-06-10T01:02:07;23;18;
67892;PMS7003;54688;52.376;16.744;2023-06-10T01:05:10;19;19;
67892;PMS7003;54688;52.376;16.744;2023-06-10T01:08:19;23;21;
67892;PMS7003;54688;52.376;16.744;2023-06-10T01:11:31;19;18;
67892;PMS7003;54688;52.376;16.744;2023-06-10T01:14:36;20;19;
67892;PMS7003;54688;52.376;16.744;2023-06-10T01:17:53;22;17;
67892;PMS7003;54688;52.376;16.744;2023-06-10T01:20:56;20;18;
67892;PMS7003;54688;52.376;16.744;2023-06-10T01:23:58;21;17;
67892;PMS7003;54688;52.376;16.744;2023-06-10T01:27:03;18;16;
67892;PMS7003;54688;52.376;16.744;2023-06-10T01:30:12;16;15;
67892;PMS7003;54688;52.376;16.744;2023-06-10T01:33:18;15;14;
67892;PMS7003;54688;52.376;16.744;2023-06-10T01:36:23;22;20;
67892;PMS7003;54688;52.376;16.744;2023-06-10T01:39:26;17;14;
67892;PMS7003;54688;52.376;16.744;2023-06-10T01:42:29;16;15;
67892;PMS7003;54688;52.376;16.744;2023-06-10T01:45:31;19;15;
67892;PMS7003;54688;52.376;16.744;2023-06-10T01:48:33;15;15;
67892;PMS7003;54688;52.376;16.744;2023-06-10T01:51:35;17;14;
67892;PMS7003;54688;52.376;16.744;2023-06-10T01:54:37;13;13;
67892;PMS7003;54688;52.376;16.744;2023-06-10T01:57:40;16;14;
67892;PMS7003;54688;52.376;16.744;2023-06-10T02:00:42;15;14;
67892;PMS7003;54688;52.376;16.744;2023-06-10T02:03:44;12;12;
67892;PMS7003;54688;52.376;16.744;2023-06-10T02:06:46;18;15;
67892;PMS7003;54688;52.376;16.744;2023-06-10T02:09:48;15;15;
67892;PMS7003;54688;52.376;16.744;2023-06-10T02:12:50;14;14;
67892;PMS7003;54688;52.376;16.744;2023-06-10T02:15:52;21;16;
67892;PMS7003;54688;52.376;16.744;2023-06-10T02:18:54;17;16;
67892;PMS7003;54688;52.376;16.744;2023-06-10T02:21:56;16;16;
67892;PMS7003;54688;52.376;16.744;2023-06-10T02:24:58;15;15;
67892;PMS7003;54688;52.376;16.744;2023-06-10T02:28:00;15;15;
67892;PMS7003;54688;52.376;16.744;2023-06-10T02:31:03;18;14;
67892;PMS7003;54688;52.376;16.744;2023-06-10T02:34:05;23;17;
67892;PMS7003;54688;52.376;16.744;2023-06-10T02:37:07;15;14;
67892;PMS7003;54688;52.376;16.744;2023-06-10T02:40:09;19;17;
67892;PMS7003;54688;52.376;16.744;2023-06-10T02:43:11;14;14;
67892;PMS7003;54688;52.376;16.744;2023-06-10T02:46:13;20;15;
67892;PMS7003;54688;52.376;16.744;2023-06-10T02:49:15;15;14;
67892;PMS7003;54688;52.376;16.744;2023-06-10T02:52:17;15;15;
67892;PMS7003;54688;52.376;16.744;2023-06-10T02:55:20;17;15;
67892;PMS7003;54688;52.376;16.744;2023-06-10T02:58:21;18;14;
67892;PMS7003;54688;52.376;16.744;2023-06-10T03:01:24;19;16;
67892;PMS7003;54688;52.376;16.744;2023-06-10T03:04:26;18;17;
67892;PMS7003;54688;52.376;16.744;2023-06-10T03:07:28;17;17;
67892;PMS7003;54688;52.376;16.744;2023-06-10T03:10:30;18;17;
67892;PMS7003;54688;52.376;16.744;2023-06-10T03:13:32;20;20;
67892;PMS7003;54688;52.376;16.744;2023-06-10T03:16:34;16;15;
67892;PMS7003;54688;52.376;16.744;2023-06-10T03:19:36;15;14;
67892;PMS7003;54688;52.376;16.744;2023-06-10T03:22:37;18;17;
67892;PMS7003;54688;52.376;16.744;2023-06-10T03:25:39;16;15;
67892;PMS7003;54688;52.376;16.744;2023-06-10T03:28:41;18;15;
67892;PMS7003;54688;52.376;16.744;2023-06-10T03:31:44;18;17;
67892;PMS7003;54688;52.376;16.744;2023-06-10T03:34:46;20;16;
67892;PMS7003;54688;52.376;16.744;2023-06-10T03:37:48;16;14;
67892;PMS7003;54688;52.376;16.744;2023-06-10T03:40:50;16;16;
67892;PMS7003;54688;52.376;16.744;2023-06-10T03:43:51;18;17;
67892;PMS7003;54688;52.376;16.744;2023-06-10T03:46:53;24;22;
67892;PMS7003;54688;52.376;16.744;2023-06-10T03:49:55;21;18;
67892;PMS7003;54688;52.376;16.744;2023-06-10T03:52:57;17;17;
67892;PMS7003;54688;52.376;16.744;2023-06-10T03:56:00;19;14;
67892;PMS7003;54688;52.376;16.744;2023-06-10T03:59:02;16;16;
67892;PMS7003;54688;52.376;16.744;2023-06-10T04:02:04;23;19;
67892;PMS7003;54688;52.376;16.744;2023-06-10T04:05:06;20;18;
67892;PMS7003;54688;52.376;16.744;2023-06-10T04:08:08;18;16;
67892;PMS7003;54688;52.376;16.744;2023-06-10T04:11:10;17;16;
67892;PMS7003;54688;52.376;16.744;2023-06-10T04:14:12;19;17;
67892;PMS7003;54688;52.376;16.744;2023-06-10T04:17:15;16;13;
67892;PMS7003;54688;52.376;16.744;2023-06-10T04:20:17;22;18;
67892;PMS7003;54688;52.376;16.744;2023-06-10T04:23:19;17;17;
67892;PMS7003;54688;52.376;16.744;2023-06-10T04:26:21;18;16;
67892;PMS7003;54688;52.376;16.744;2023-06-10T04:29:23;18;15;
67892;PMS7003;54688;52.376;16.744;2023-06-10T04:32:26;18;15;
67892;PMS7003;54688;52.376;16.744;2023-06-10T04:35:28;16;13;
67892;PMS7003;54688;52.376;16.744;2023-06-10T04:38:30;13;12;
67892;PMS7003;54688;52.376;16.744;2023-06-10T04:41:32;16;15;
67892;PMS7003;54688;52.376;16.744;2023-06-10T04:44:34;17;14;
67892;PMS7003;54688;52.376;16.744;2023-06-10T04:47:36;20;14;
67892;PMS7003;54688;52.376;16.744;2023-06-10T04:50:38;14;14;
67892;PMS7003;54688;52.376;16.744;2023-06-10T04:53:40;17;14;
67892;PMS7003;54688;52.376;16.744;2023-06-10T04:56:41;19;16;
67892;PMS7003;54688;52.376;16.744;2023-06-10T04:59:43;18;14;
67892;PMS7003;54688;52.376;16.744;2023-06-10T05:02:46;14;13;
67892;PMS7003;54688;52.376;16.744;2023-06-10T05:05:47;14;13;
67892;PMS7003;54688;52.376;16.744;2023-06-10T05:08:49;20;16;
67892;PMS7003;54688;52.376;16.744;2023-06-10T05:11:51;13;12;
67892;PMS7003;54688;52.376;16.744;2023-06-10T05:14:53;13;12;
67892;PMS7003;54688;52.376;16.744;2023-06-10T05:17:56;12;11;
67892;PMS7003;54688;52.376;16.744;2023-06-10T05:20:58;15;11;
67892;PMS7003;54688;52.376;16.744;2023-06-10T05:24:00;15;12;
67892;PMS7003;54688;52.376;16.744;2023-06-10T05:27:03;11;11;
67892;PMS7003;54688;52.376;16.744;2023-06-10T05:30:06;15;14;
67892;PMS7003;54688;52.376;16.744;2023-06-10T05:33:09;12;11;
67892;PMS7003;54688;52.376;16.744;2023-06-10T05:36:11;9;9;
67892;PMS7003;54688;52.376;16.744;2023-06-10T05:39:13;12;12;
67892;PMS7003;54688;52.376;16.744;2023-06-10T05:42:16;13;12;
67892;PMS7003;54688;52.376;16.744;2023-06-10T05:45:17;12;7;
67892;PMS7003;54688;52.376;16.744;2023-06-10T05:48:19;13;12;
67892;PMS7003;54688;52.376;16.744;2023-06-10T05:51:21;12;9;
67892;PMS7003;54688;52.376;16.744;2023-06-10T05:54:23;9;8;
67892;PMS7003;54688;52.376;16.744;2023-06-10T05:57:25;13;12;
67892;PMS7003;54688;52.376;16.744;2023-06-10T06:00:27;11;10;
67892;PMS7003;54688;52.376;16.744;2023-06-10T06:03:29;10;8;
67892;PMS7003;54688;52.376;16.744;2023-06-10T06:06:31;11;10;
67892;PMS7003;54688;52.376;16.744;2023-06-10T06:09:33;10;9;
67892;PMS7003;54688;52.376;16.744;2023-06-10T06:12:35;11;10;
67892;PMS7003;54688;52.376;16.744;2023-06-10T06:15:37;12;9;
67892;PMS7003;54688;52.376;16.744;2023-06-10T06:18:39;9;9;
67892;PMS7003;54688;52.376;16.744;2023-06-10T06:21:40;11;11;
67892;PMS7003;54688;52.376;16.744;2023-06-10T06:24:42;12;9;
67892;PMS7003;54688;52.376;16.744;2023-06-10T06:27:44;11;9;
67892;PMS7003;54688;52.376;16.744;2023-06-10T06:30:46;12;9;
67892;PMS7003;54688;52.376;16.744;2023-06-10T06:33:48;8;8;
67892;PMS7003;54688;52.376;16.744;2023-06-10T06:36:50;12;10;
67892;PMS7003;54688;52.376;16.744;2023-06-10T06:39:53;12;10;
67892;PMS7003;54688;52.376;16.744;2023-06-10T06:42:55;11;9;
67892;PMS7003;54688;52.376;16.744;2023-06-10T06:45:57;15;11;
67892;PMS7003;54688;52.376;16.744;2023-06-10T06:48:59;13;11;
67892;PMS7003;54688;52.376;16.744;2023-06-10T06:52:03;10;8;
67892;PMS7003;54688;52.376;16.744;2023-06-10T06:55:06;10;8;
67892;PMS7003;54688;52.376;16.744;2023-06-10T06:58:08;11;9;
67892;PMS7003;54688;52.376;16.744;2023-06-10T07:01:09;12;11;
67892;PMS7003;54688;52.376;16.744;2023-06-10T07:04:14;11;10;
67892;PMS7003;54688;52.376;16.744;2023-06-10T07:07:16;8;6;
67892;PMS7003;54688;52.376;16.744;2023-06-10T07:10:18;11;11;
67892;PMS7003;54688;52.376;16.744;2023-06-10T07:13:20;9;9;
67892;PMS7003;54688;52.376;16.744;2023-06-10T07:16:21;13;9;
67892;PMS7003;54688;52.376;16.744;2023-06-10T07:19:23;13;9;
67892;PMS7003;54688;52.376;16.744;2023-06-10T07:22:25;10;10;
67892;PMS7003;54688;52.376;16.744;2023-06-10T07:25:26;9;9;
67892;PMS7003;54688;52.376;16.744;2023-06-10T07:28:28;10;7;
67892;PMS7003;54688;52.376;16.744;2023-06-10T07:31:30;9;9;
67892;PMS7003;54688;52.376;16.744;2023-06-10T07:34:32;14;12;
67892;PMS7003;54688;52.376;16.744;2023-06-10T07:37:35;11;9;
67892;PMS7003;54688;52.376;16.744;2023-06-10T07:40:36;11;9;
67892;PMS7003;54688;52.376;16.744;2023-06-10T07:43:38;9;8;
67892;PMS7003;54688;52.376;16.744;2023-06-10T07:46:40;14;11;
67892;PMS7003;54688;52.376;16.744;2023-06-10T07:49:41;8;8;
67892;PMS7003;54688;52.376;16.744;2023-06-10T07:52:44;9;9;
67892;PMS7003;54688;52.376;16.744;2023-06-10T07:55:45;9;9;
67892;PMS7003;54688;52.376;16.744;2023-06-10T07:58:47;13;10;
67892;PMS7003;54688;52.376;16.744;2023-06-10T08:01:49;9;9;
67892;PMS7003;54688;52.376;16.744;2023-06-10T08:04:54;10;9;
67892;PMS7003;54688;52.376;16.744;2023-06-10T08:07:57;10;10;
67892;PMS7003;54688;52.376;16.744;2023-06-10T08:11:00;10;10;
67892;PMS7003;54688;52.376;16.744;2023-06-10T08:14:02;11;11;
67892;PMS7003;54688;52.376;16.744;2023-06-10T08:17:05;12;10;
67892;PMS7003;54688;52.376;16.744;2023-06-10T08:20:07;10;9;
67892;PMS7003;54688;52.376;16.744;2023-06-10T08:23:10;10;10;
67892;PMS7003;54688;52.376;16.744;2023-06-10T08:26:11;15;9;
67892;PMS7003;54688;52.376;16.744;2023-06-10T08:29:13;12;10;
67892;PMS7003;54688;52.376;16.744;2023-06-10T08:32:15;7;7;
67892;PMS7003;54688;52.376;16.744;2023-06-10T08:35:18;13;9;
67892;PMS7003;54688;52.376;16.744;2023-06-10T08:38:20;10;10;
67892;PMS7003;54688;52.376;16.744;2023-06-10T08:41:24;10;9;
67892;PMS7003;54688;52.376;16.744;2023-06-10T08:44:28;9;9;
67892;PMS7003;54688;52.376;16.744;2023-06-10T08:47:32;12;6;
67892;PMS7003;54688;52.376;16.744;2023-06-10T08:50:36;8;8;
67892;PMS7003;54688;52.376;16.744;2023-06-10T08:53:46;8;7;
67892;PMS7003;54688;52.376;16.744;2023-06-10T08:56:50;10;7;
67892;PMS7003;54688;52.376;16.744;2023-06-10T08:59:53;11;8;
67892;PMS7003;54688;52.376;16.744;2023-06-10T09:02:56;7;7;
67892;PMS7003;54688;52.376;16.744;2023-06-10T09:05:58;9;6;
67892;PMS7003;54688;52.376;16.744;2023-06-10T09:09:00;6;6;
67892;PMS7003;54688;52.376;16.744;2023-06-10T09:12:04;13;7;
67892;PMS7003;54688;52.376;16.744;2023-06-10T09:15:07;8;8;
67892;PMS7003;54688;52.376;16.744;2023-06-10T09:18:10;9;9;
67892;PMS7003;54688;52.376;16.744;2023-06-10T09:21:12;9;8;
67892;PMS7003;54688;52.376;16.744;2023-06-10T09:24:15;9;7;
67892;PMS7003;54688;52.376;16.744;2023-06-10T09:27:17;12;7;
67892;PMS7003;54688;52.376;16.744;2023-06-10T09:30:27;6;6;
67892;PMS7003;54688;52.376;16.744;2023-06-10T09:33:29;8;7;
67892;PMS7003;54688;52.376;16.744;2023-06-10T09:36:32;8;8;
67892;PMS7003;54688;52.376;16.744;2023-06-10T09:39:34;6;6;
67892;PMS7003;54688;52.376;16.744;2023-06-10T09:42:38;6;6;
67892;PMS7003;54688;52.376;16.744;2023-06-10T09:45:41;9;6;
67892;PMS7003;54688;52.376;16.744;2023-06-10T09:48:44;6;6;
67892;PMS7003;54688;52.376;16.744;2023-06-10T09:51:50;5;5;
67892;PMS7003;54688;52.376;16.744;2023-06-10T09:54:52;5;4;
67892;PMS7003;54688;52.376;16.744;2023-06-10T09:57:55;7;7;
67892;PMS7003;54688;52.376;16.744;2023-06-10T10:00:57;8;5;
67892;PMS7003;54688;52.376;16.744;2023-06-10T10:04:00;7;6;
67892;PMS7003;54688;52.376;16.744;2023-06-10T10:07:03;6;6;
67892;PMS7003;54688;52.376;16.744;2023-06-10T10:10:06;7;7;
67892;PMS7003;54688;52.376;16.744;2023-06-10T10:13:08;9;9;
67892;PMS7003;54688;52.376;16.744;2023-06-10T10:16:14;9;7;
67892;PMS7003;54688;52.376;16.744;2023-06-10T10:19:20;9;8;
67892;PMS7003;54688;52.376;16.744;2023-06-10T10:22:26;7;6;
67892;PMS7003;54688;52.376;16.744;2023-06-10T10:25:32;7;6;
67892;PMS7003;54688;52.376;16.744;2023-06-10T10:28:41;7;6;
67892;PMS7003;54688;52.376;16.744;2023-06-10T10:31:44;5;5;
67892;PMS7003;54688;52.376;16.744;2023-06-10T10:34:49;9;8;
67892;PMS7003;54688;52.376;16.744;2023-06-10T10:37:53;7;6;
67892;PMS7003;54688;52.376;16.744;2023-06-10T10:40:56;7;6;
67892;PMS7003;54688;52.376;16.744;2023-06-10T10:43:59;7;7;
67892;PMS7003;54688;52.376;16.744;2023-06-10T10:47:02;7;6;
67892;PMS7003;54688;52.376;16.744;2023-06-10T10:50:15;7;7;
67892;PMS7003;54688;52.376;16.744;2023-06-10T10:53:19;10;7;
67892;PMS7003;54688;52.376;16.744;2023-06-10T10:56:27;7;6;
67892;PMS7003;54688;52.376;16.744;2023-06-10T10:59:43;5;5;
67892;PMS7003;54688;52.376;16.744;2023-06-10T11:02:46;7;5;
67892;PMS7003;54688;52.376;16.744;2023-06-10T11:05:49;6;5;
67892;PMS7003;54688;52.376;16.744;2023-06-10T11:08:59;8;7;
67892;PMS7003;54688;52.376;16.744;2023-06-10T11:12:05;9;6;
67892;PMS7003;54688;52.376;16.744;2023-06-10T11:15:07;8;7;
67892;PMS7003;54688;52.376;16.744;2023-06-10T11:18:12;12;8;
67892;PMS7003;54688;52.376;16.744;2023-06-10T11:21:16;10;6;
67892;PMS7003;54688;52.376;16.744;2023-06-10T11:24:18;8;7;
67892;PMS7003;54688;52.376;16.744;2023-06-10T11:27:22;6;6;
67892;PMS7003;54688;52.376;16.744;2023-06-10T11:30:25;9;6;
67892;PMS7003;54688;52.376;16.744;2023-06-10T11:33:29;6;5;
67892;PMS7003;54688;52.376;16.744;2023-06-10T11:36:34;11;7;
67892;PMS7003;54688;52.376;16.744;2023-06-10T11:39:38;7;7;
67892;PMS7003;54688;52.376;16.744;2023-06-10T11:42:40;7;7;
67892;PMS7003;54688;52.376;16.744;2023-06-10T11:45:42;6;6;
67892;PMS7003;54688;52.376;16.744;2023-06-10T11:48:48;9;7;
67892;PMS7003;54688;52.376;16.744;2023-06-10T11:51:51;8;8;
67892;PMS7003;54688;52.376;16.744;2023-06-10T11:54:55;6;6;
67892;PMS7003;54688;52.376;16.744;2023-06-10T11:58:03;5;5;
67892;PMS7003;54688;52.376;16.744;2023-06-10T12:01:05;6;6;
67892;PMS7003;54688;52.376;16.744;2023-06-10T12:04:09;6;6;
67892;PMS7003;54688;52.376;16.744;2023-06-10T12:07:17;7;6;
67892;PMS7003;54688;52.376;16.744;2023-06-10T12:10:19;6;5;
67892;PMS7003;54688;52.376;16.744;2023-06-10T12:13:22;7;6;
67892;PMS7003;54688;52.376;16.744;2023-06-10T12:16:24;5;5;
67892;PMS7003;54688;52.376;16.744;2023-06-10T12:19:26;6;6;
67892;PMS7003;54688;52.376;16.744;2023-06-10T12:22:35;6;5;
67892;PMS7003;54688;52.376;16.744;2023-06-10T12:25:38;5;5;
67892;PMS7003;54688;52.376;16.744;2023-06-10T12:28:50;5;5;
67892;PMS7003;54688;52.376;16.744;2023-06-10T12:31:53;8;5;
67892;PMS7003;54688;52.376;16.744;2023-06-10T12:35:02;5;5;
67892;PMS7003;54688;52.376;16.744;2023-06-10T12:38:05;7;7;
67892;PMS7003;54688;52.376;16.744;2023-06-10T12:41:07;6;5;
67892;PMS7003;54688;52.376;16.744;2023-06-10T12:44:09;7;6;
67892;PMS7003;54688;52.376;16.744;2023-06-10T12:47:12;5;5;
67892;PMS7003;54688;52.376;16.744;2023-06-10T12:50:14;8;6;
67892;PMS7003;54688;52.376;16.744;2023-06-10T12:53:17;6;4;
67892;PMS7003;54688;52.376;16.744;2023-06-10T12:56:20;5;5;
67892;PMS7003;54688;52.376;16.744;2023-06-10T12:59:22;6;4;
67892;PMS7003;54688;52.376;16.744;2023-06-10T13:02:24;6;6;
67892;PMS7003;54688;52.376;16.744;2023-06-10T13:05:26;4;4;
67892;PMS7003;54688;52.376;16.744;2023-06-10T13:11:29;10;8;
67892;PMS7003;54688;52.376;16.744;2023-06-10T13:14:31;5;5;
67892;PMS7003;54688;52.376;16.744;2023-06-10T13:17:34;7;7;
67892;PMS7003;54688;52.376;16.744;2023-06-10T13:20:36;6;6;
67892;PMS7003;54688;52.376;16.744;2023-06-10T13:23:38;4;4;
67892;PMS7003;54688;52.376;16.744;2023-06-10T13:26:40;7;5;
67892;PMS7003;54688;52.376;16.744;2023-06-10T13:29:43;6;5;
67892;PMS7003;54688;52.376;16.744;2023-06-10T13:32:45;8;5;
67892;PMS7003;54688;52.376;16.744;2023-06-10T13:35:47;4;4;
67892;PMS7003;54688;52.376;16.744;2023-06-10T13:38:50;6;5;
67892;PMS7003;54688;52.376;16.744;2023-06-10T13:41:52;7;6;
67892;PMS7003;54688;52.376;16.744;2023-06-10T13:47:54;3;3;
67892;PMS7003;54688;52.376;16.744;2023-06-10T13:50:56;6;4;
67892;PMS7003;54688;52.376;16.744;2023-06-10T13:53:59;7;7;
67892;PMS7003;54688;52.376;16.744;2023-06-10T13:57:01;8;6;
67892;PMS7003;54688;52.376;16.744;2023-06-10T14:03:03;7;5;
67892;PMS7003;54688;52.376;16.744;2023-06-10T14:06:06;5;5;
67892;PMS7003;54688;52.376;16.744;2023-06-10T14:09:08;5;5;
67892;PMS7003;54688;52.376;16.744;2023-06-10T14:12:10;5;5;
67892;PMS7003;54688;52.376;16.744;2023-06-10T14:15:13;5;3;
67892;PMS7003;54688;52.376;16.744;2023-06-10T14:18:15;7;7;
67892;PMS7003;54688;52.376;16.744;2023-06-10T14:21:18;6;6;
67892;PMS7003;54688;52.376;16.744;2023-06-10T14:24:20;5;4;
67892;PMS7003;54688;52.376;16.744;2023-06-10T14:27:22;5;5;
67892;PMS7003;54688;52.376;16.744;2023-06-10T14:30:25;7;6;
67892;PMS7003;54688;52.376;16.744;2023-06-10T14:33:28;5;5;
67892;PMS7003;54688;52.376;16.744;2023-06-10T14:36:30;3;3;
67892;PMS7003;54688;52.376;16.744;2023-06-10T14:39:32;4;4;
67892;PMS7003;54688;52.376;16.744;2023-06-10T14:42:35;4;4;
67892;PMS7003;54688;52.376;16.744;2023-06-10T14:45:38;4;4;
67892;PMS7003;54688;52.376;16.744;2023-06-10T14:51:40;5;3;
67892;PMS7003;54688;52.376;16.744;2023-06-10T14:54:42;4;4;
67892;PMS7003;54688;52.376;16.744;2023-06-10T14:57:45;6;6;
67892;PMS7003;54688;52.376;16.744;2023-06-10T15:00:47;4;3;
67892;PMS7003;54688;52.376;16.744;2023-06-10T15:03:49;3;3;
67892;PMS7003;54688;52.376;16.744;2023-06-10T15:06:52;3;3;
67892;PMS7003;54688;52.376;16.744;2023-06-10T15:09:54;3;3;
67892;PMS7003;54688;52.376;16.744;2023-06-10T15:12:56;3;3;
67892;PMS7003;54688;52.376;16.744;2023-06-10T15:15:58;5;3;
67892;PMS7003;54688;52.376;16.744;2023-06-10T15:19:01;4;3;
67892;PMS7003;54688;52.376;16.744;2023-06-10T15:25:04;3;3;
67892;PMS7003;54688;52.376;16.744;2023-06-10T15:28:06;5;5;
67892;PMS7003;54688;52.376;16.744;2023-06-10T15:31:09;4;4;
67892;PMS7003;54688;52.376;16.744;2023-06-10T15:34:11;3;3;
67892;PMS7003;54688;52.376;16.744;2023-06-10T15:37:13;3;3;
67892;PMS7003;54688;52.376;16.744;2023-06-10T15:40:16;2;2;
67892;PMS7003;54688;52.376;16.744;2023-06-10T15:43:18;4;2;
67892;PMS7003;54688;52.376;16.744;2023-06-10T15:46:20;4;3;
67892;PMS7003;54688;52.376;16.744;2023-06-10T15:49:23;3;3;
67892;PMS7003;54688;52.376;16.744;2023-06-10T15:52:25;3;3;
67892;PMS7003;54688;52.376;16.744;2023-06-10T15:55:27;2;2;
67892;PMS7003;54688;52.376;16.744;2023-06-10T15:58:29;1;1;
67892;PMS7003;54688;52.376;16.744;2023-06-10T16:01:32;3;3;
67892;PMS7003;54688;52.376;16.744;2023-06-10T16:04:34;3;2;
67892;PMS7003;54688;52.376;16.744;2023-06-10T16:10:36;4;3;
67892;PMS7003;54688;52.376;16.744;2023-06-10T16:13:39;2;2;
67892;PMS7003;54688;52.376;16.744;2023-06-10T16:16:41;1;1;
67892;PMS7003;54688;52.376;16.744;2023-06-10T16:19:43;2;2;
67892;PMS7003;54688;52.376;16.744;2023-06-10T16:22:46;5;3;
67892;PMS7003;54688;52.376;16.744;2023-06-10T16:25:48;3;3;
67892;PMS7003;54688;52.376;16.744;2023-06-10T16:28:50;2;2;
67892;PMS7003;54688;52.376;16.744;2023-06-10T16:31:53;3;3;
67892;PMS7003;54688;52.376;16.744;2023-06-10T16:34:55;4;4;
67892;PMS7003;54688;52.376;16.744;2023-06-10T16:37:58;3;3;
67892;PMS7003;54688;52.376;16.744;2023-06-10T16:41:00;3;3;
67892;PMS7003;54688;52.376;16.744;2023-06-10T16:44:02;4;4;
67892;PMS7003;54688;52.376;16.744;2023-06-10T16:47:05;3;3;
67892;PMS7003;54688;52.376;16.744;2023-06-10T16:50:08;6;4;
67892;PMS7003;54688;52.376;16.744;2023-06-10T16:56:10;3;3;
67892;PMS7003;54688;52.376;16.744;2023-06-10T16:59:12;4;4;
67892;PMS7003;54688;52.376;16.744;2023-06-10T17:02:14;4;4;
67892;PMS7003;54688;52.376;16.744;2023-06-10T17:05:17;5;5;
67892;PMS7003;54688;52.376;16.744;2023-06-10T17:08:19;1;1;
67892;PMS7003;54688;52.376;16.744;2023-06-10T17:11:21;4;2;
67892;PMS7003;54688;52.376;16.744;2023-06-10T17:14:24;3;3;
67892;PMS7003;54688;52.376;16.744;2023-06-10T17:20:26;2;2;
67892;PMS7003;54688;52.376;16.744;2023-06-10T17:23:28;4;4;
67892;PMS7003;54688;52.376;16.744;2023-06-10T17:26:30;5;4;
67892;PMS7003;54688;52.376;16.744;2023-06-10T17:29:33;2;2;
67892;PMS7003;54688;52.376;16.744;2023-06-10T17:32:35;2;2;
67892;PMS7003;54688;52.376;16.744;2023-06-10T17:35:37;5;3;
67892;PMS7003;54688;52.376;16.744;2023-06-10T17:41:40;3;2;
67892;PMS7003;54688;52.376;16.744;2023-06-10T17:44:42;2;1;
67892;PMS7003;54688;52.376;16.744;2023-06-10T17:50:44;2;2;
67892;PMS7003;54688;52.376;16.744;2023-06-10T17:53:46;1;1;
67892;PMS7003;54688;52.376;16.744;2023-06-10T17:56:49;2;1;
67892;PMS7003;54688;52.376;16.744;2023-06-10T17:59:51;2;2;
67892;PMS7003;54688;52.376;16.744;2023-06-10T18:02:54;3;1;
67892;PMS7003;54688;52.376;16.744;2023-06-10T18:05:56;2;2;
67892;PMS7003;54688;52.376;16.744;2023-06-10T18:08:59;1;1;
67892;PMS7003;54688;52.376;16.744;2023-06-10T18:12:01;1;1;
67892;PMS7003;54688;52.376;16.744;2023-06-10T18:15:05;3;1;
67892;PMS7003;54688;52.376;16.744;2023-06-10T18:18:07;2;2;
67892;PMS7003;54688;52.376;16.744;2023-06-10T18:21:10;2;2;
67892;PMS7003;54688;52.376;16.744;2023-06-10T18:24:12;3;3;
67892;PMS7003;54688;52.376;16.744;2023-06-10T18:27:13;5;3;
67892;PMS7003;54688;52.376;16.744;2023-06-10T18:30:16;5;3;
67892;PMS7003;54688;52.376;16.744;2023-06-10T18:33:18;2;2;
67892;PMS7003;54688;52.376;16.744;2023-06-10T18:36:20;2;2;
67892;PMS7003;54688;52.376;16.744;2023-06-10T18:39:22;1;1;
67892;PMS7003;54688;52.376;16.744;2023-06-10T18:42:24;4;3;
67892;PMS7003;54688;52.376;16.744;2023-06-10T18:45:26;3;3;
67892;PMS7003;54688;52.376;16.744;2023-06-10T18:48:29;4;4;
67892;PMS7003;54688;52.376;16.744;2023-06-10T18:51:31;3;3;
67892;PMS7003;54688;52.376;16.744;2023-06-10T18:54:34;6;2;
67892;PMS7003;54688;52.376;16.744;2023-06-10T18:57:36;3;3;
67892;PMS7003;54688;52.376;16.744;2023-06-10T19:00:38;3;3;
67892;PMS7003;54688;52.376;16.744;2023-06-10T19:03:41;2;2;
67892;PMS7003;54688;52.376;16.744;2023-06-10T19:06:43;3;2;
67892;PMS7003;54688;52.376;16.744;2023-06-10T19:09:45;2;2;
67892;PMS7003;54688;52.376;16.744;2023-06-10T19:12:47;2;2;
67892;PMS7003;54688;52.376;16.744;2023-06-10T19:15:50;3;2;
67892;PMS7003;54688;52.376;16.744;2023-06-10T19:18:52;4;4;
67892;PMS7003;54688;52.376;16.744;2023-06-10T19:21:54;8;5;
67892;PMS7003;54688;52.376;16.744;2023-06-10T19:24:59;3;1;
67892;PMS7003;54688;52.376;16.744;2023-06-10T19:28:02;4;3;
67892;PMS7003;54688;52.376;16.744;2023-06-10T19:31:04;2;2;
67892;PMS7003;54688;52.376;16.744;2023-06-10T19:34:06;2;2;
67892;PMS7003;54688;52.376;16.744;2023-06-10T19:37:08;3;3;
67892;PMS7003;54688;52.376;16.744;2023-06-10T19:40:11;1;1;
67892;PMS7003;54688;52.376;16.744;2023-06-10T19:43:13;3;2;
67892;PMS7003;54688;52.376;16.744;2023-06-10T19:46:15;3;3;
67892;PMS7003;54688;52.376;16.744;2023-06-10T19:49:17;4;2;
67892;PMS7003;54688;52.376;16.744;2023-06-10T19:52:20;2;2;
67892;PMS7003;54688;52.376;16.744;2023-06-10T19:55:22;3;3;
67892;PMS7003;54688;52.376;16.744;2023-06-10T19:58:24;2;2;
67892;PMS7003;54688;52.376;16.744;2023-06-10T20:01:26;4;4;
67892;PMS7003;54688;52.376;16.744;2023-06-10T20:04:28;3;2;
67892;PMS7003;54688;52.376;16.744;2023-06-10T20:07:30;2;2;
67892;PMS7003;54688;52.376;16.744;2023-06-10T20:10:32;5;2;
67892;PMS7003;54688;52.376;16.744;2023-06-10T20:13:34;3;3;
67892;PMS7003;54688;52.376;16.744;2023-06-10T20:16:36;4;4;
67892;PMS7003;54688;52.376;16.744;2023-06-10T20:19:38;4;2;
67892;PMS7003;54688;52.376;16.744;2023-06-10T20:22:41;4;2;
67892;PMS7003;54688;52.376;16.744;2023-06-10T20:25:43;5;3;
67892;PMS7003;54688;52.376;16.744;2023-06-10T20:28:45;5;4;
67892;PMS7003;54688;52.376;16.744;2023-06-10T20:31:47;2;2;
67892;PMS7003;54688;52.376;16.744;2023-06-10T20:34:49;4;3;
67892;PMS7003;54688;52.376;16.744;2023-06-10T20:37:51;4;3;
67892;PMS7003;54688;52.376;16.744;2023-06-10T20:40:53;5;3;
67892;PMS7003;54688;52.376;16.744;2023-06-10T20:43:55;4;3;
67892;PMS7003;54688;52.376;16.744;2023-06-10T20:46:57;2;2;